Latest Weather Observations for Sydney Harbour

IDN60901

Issued at 6:31 pm EST Friday 22 May 2015 (issued every 10 minutes, with the page automatically refreshed every 10 minutes)

About weather observations | Map of Sydney area stations | Latest observations for Sydney area | Other Formats
Station Details ID: 066196 Name: WEDDING CAKE WEST Lat: -33.84 Lon: 151.26 Height: 6.0 m
Data from the previous 72 hours. | See also: Recent months for locations in New South Wales
Date/Time
EST
Tmp

°C
App
Tmp
°C
Dew
Point
°C
Rel
Hum
%
Delta-T

°C
Wind Press
QNH
hPa
Press
MSL
hPa
Rain
since
9 am
mm
Dir
 
Spd
km/h
Gust
km/h
Spd
kts
Gust
kts
22/06:30pm 14.6 - - - - SSW 43 56 23 30 - - -
22/06:04pm 15.5 - - - - SSW 46 65 25 35 - - -
22/06:00pm 17.0 - - - - SSW 44 57 24 31 - - -
22/05:30pm 16.9 - - - - SSW 41 56 22 30 - - -
22/05:00pm 17.5 - - - - S 43 61 23 33 - - -
22/04:51pm 17.5 - - - - S 41 59 22 32 - - -
22/04:30pm 17.4 - - - - SSW 54 70 29 38 - - -
22/04:01pm 17.0 - - - - S 43 69 23 37 - - -
22/04:00pm 17.0 - - - - S 41 56 22 30 - - -
22/03:34pm 16.9 - - - - S 54 72 29 39 - - -
22/03:30pm 16.9 - - - - S 52 69 28 37 - - -
22/03:03pm 17.6 - - - - S 54 72 29 39 - - -
22/03:00pm 17.4 - - - - S 54 69 29 37 - - -
22/02:39pm 17.3 - - - - S 54 76 29 41 - - -
22/02:30pm 17.5 - - - - S 54 70 29 38 - - -
22/02:02pm 17.3 - - - - S 59 78 32 42 - - -
22/02:00pm 17.3 - - - - S 57 74 31 40 - - -
22/01:41pm 17.6 - - - - S 54 72 29 39 - - -
22/01:30pm 17.5 - - - - SSW 57 72 31 39 - - -
22/01:04pm 17.8 - - - - S 63 87 34 47 - - -
22/01:00pm 17.8 - - - - S 63 78 34 42 - - -
22/12:30pm 17.7 - - - - S 57 83 31 45 - - -
22/12:00pm 17.1 - - - - S 50 72 27 39 - - -
22/11:45am 16.7 - - - - S 54 74 29 40 - - -
22/11:30am 16.7 - - - - S 48 65 26 35 - - -
22/11:00am 14.6 - - - - S 50 69 27 37 - - -
22/10:38am 15.9 - - - - S 50 69 27 37 - - -
22/10:32am 15.0 - - - - S 39 69 21 37 - - -
22/10:30am 15.2 - - - - SSW 33 56 18 30 - - -
22/10:00am 16.3 - - - - S 39 59 21 32 - - -
22/09:58am 16.5 - - - - S 37 56 20 30 - - -
22/09:30am 16.6 - - - - S 39 56 21 30 - - -
22/09:02am 16.7 - - - - S 41 59 22 32 - - -
22/09:00am 16.4 - - - - S 41 57 22 31 - - -
22/08:40am 16.7 - - - - S 32 57 17 31 - - -
22/08:30am 15.4 - - - - SW 35 44 19 24 - - -
22/08:00am 13.6 - - - - W 24 37 13 20 - - -
22/07:30am 14.3 - - - - SW 33 39 18 21 - - -
22/07:00am 14.8 - - - - SW 37 46 20 25 - - -
22/06:30am 14.5 - - - - WSW 35 46 19 25 - - -
22/06:00am 14.4 - - - - WSW 32 39 17 21 - - -
22/05:30am 14.9 - - - - WSW 24 32 13 17 - - -
22/05:00am 14.9 - - - - WSW 28 39 15 21 - - -
22/04:30am 14.8 - - - - WSW 32 39 17 21 - - -
22/04:00am 15.0 - - - - WSW 28 41 15 22 - - -
22/03:30am 14.4 - - - - WSW 28 35 15 19 - - -
22/03:00am 14.6 - - - - W 24 32 13 17 - - -
22/02:30am 14.3 - - - - W 26 33 14 18 - - -
22/02:00am 14.4 - - - - W 22 28 12 15 - - -
22/01:30am 14.4 - - - - W 22 28 12 15 - - -
22/01:00am 14.8 - - - - WSW 20 28 11 15 - - -
22/12:30am 14.9 - - - - W 20 26 11 14 - - -
22/12:00am 15.1 - - - - WSW 20 26 11 14 - - -
 
Date/Time
EST
Tmp

°C
App
Tmp
°C
Dew
Point
°C
Rel
Hum
%
Delta-T

°C
Wind Press
QNH
hPa
Press
MSL
hPa
Rain
since
9 am
mm
Dir
 
Spd
km/h
Gust
km/h
Spd
kts
Gust
kts
21/11:30pm 15.5 - - - - WSW 24 32 13 17 - - -
21/11:00pm 16.1 - - - - WSW 28 35 15 19 - - -
21/10:30pm 16.4 - - - - SW 26 30 14 16 - - -
21/10:00pm 16.7 - - - - SW 26 32 14 17 - - -
21/09:30pm 16.8 - - - - SW 22 28 12 15 - - -
21/09:00pm 16.9 - - - - SSW 28 37 15 20 - - -
21/08:30pm 15.8 - - - - S 22 30 12 16 - - -
21/08:00pm 15.8 - - - - S 35 46 19 25 - - -
21/07:30pm 17.1 - - - - SSW 33 43 18 23 - - -
21/07:00pm 17.6 - - - - S 28 37 15 20 - - -
21/06:30pm 17.7 - - - - SSW 35 43 19 23 - - -
21/06:00pm 18.0 - - - - SSW 32 39 17 21 - - -
21/05:30pm 18.4 - - - - SSW 28 35 15 19 - - -
21/05:00pm 18.4 - - - - SSW 26 32 14 17 - - -
21/04:30pm 18.6 - - - - S 24 30 13 16 - - -
21/04:00pm 18.6 - - - - S 22 28 12 15 - - -
21/03:30pm 18.9 - - - - S 26 33 14 18 - - -
21/03:00pm 18.9 - - - - S 28 33 15 18 - - -
21/02:30pm 18.9 - - - - S 26 33 14 18 - - -
21/02:00pm 18.7 - - - - SSW 20 30 11 16 - - -
21/01:30pm 18.5 - - - - SSW 24 30 13 16 - - -
21/01:00pm 18.8 - - - - SSW 19 24 10 13 - - -
21/12:30pm 18.9 - - - - SSW 17 22 9 12 - - -
21/12:00pm 18.8 - - - - SSW 17 24 9 13 - - -
21/11:30am 18.6 - - - - SW 20 26 11 14 - - -
21/11:00am 18.2 - - - - WSW 20 26 11 14 - - -
21/10:30am 17.9 - - - - WSW 22 26 12 14 - - -
21/10:00am 17.4 - - - - WSW 24 30 13 16 - - -
21/09:30am 17.1 - - - - WSW 22 28 12 15 - - -
21/09:00am 16.7 - - - - WSW 24 37 13 20 - - -
21/08:30am 16.5 - - - - W 22 26 12 14 - - -
21/08:00am 16.5 - - - - WSW 20 30 11 16 - - -
21/07:30am 16.3 - - - - W 17 24 9 13 - - -
21/07:00am 16.3 - - - - W 20 24 11 13 - - -
21/06:30am 16.3 - - - - WSW 15 20 8 11 - - -
21/06:00am 16.6 - - - - WSW 17 24 9 13 - - -
21/05:30am 16.7 - - - - W 15 19 8 10 - - -
21/05:00am 16.9 - - - - W 11 13 6 7 - - -
21/04:30am 17.3 - - - - W 11 13 6 7 - - -
21/04:00am 17.6 - - - - W 6 9 3 5 - - -
21/03:30am 17.7 - - - - W 9 13 5 7 - - -
21/03:00am 17.9 - - - - WNW 13 19 7 10 - - -
21/02:30am 18.2 - - - - WSW 11 17 6 9 - - -
21/02:00am 17.9 - - - - WNW 9 11 5 6 - - -
21/01:30am 18.1 - - - - W 15 19 8 10 - - -
21/01:00am 18.4 - - - - W 20 26 11 14 - - -
21/12:30am 18.5 - - - - NW 20 30 11 16 - - -
21/12:00am 19.0 - - - - NW 20 30 11 16 - - -
 
Date/Time
EST
Tmp

°C
App
Tmp
°C
Dew
Point
°C
Rel
Hum
%
Delta-T

°C
Wind Press
QNH
hPa
Press
MSL
hPa
Rain
since
9 am
mm
Dir
 
Spd
km/h
Gust
km/h
Spd
kts
Gust
kts
20/11:30pm 19.4 - - - - NW 22 30 12 16 - - -
20/11:00pm 19.7 - - - - NW 17 22 9 12 - - -
20/10:30pm 20.1 - - - - WNW 17 20 9 11 - - -
20/10:00pm 20.1 - - - - W 11 13 6 7 - - -
20/09:30pm 19.7 - - - - WSW 11 15 6 8 - - -
20/09:00pm 20.5 - - - - NW 19 26 10 14 - - -
20/08:30pm 19.9 - - - - WNW 11 13 6 7 - - -
20/08:00pm 20.7 - - - - NW 13 20 7 11 - - -
20/07:30pm 19.7 - - - - CALM 0 0 0 0 - - -
20/07:00pm 19.4 - - - - CALM 0 0 0 0 - - -
20/06:30pm 19.9 - - - - NNE 7 9 4 5 - - -
20/06:00pm 19.7 - - - - NNE 7 9 4 5 - - -
20/05:30pm 19.9 - - - - NNE 7 9 4 5 - - -
20/05:00pm 20.2 - - - - NNE 7 11 4 6 - - -
20/04:30pm 20.7 - - - - NE 7 9 4 5 - - -
20/04:00pm 20.7 - - - - NE 7 9 4 5 - - -
20/03:30pm 20.6 - - - - NE 9 13 5 7 - - -
20/03:00pm 21.0 - - - - ENE 11 13 6 7 - - -
20/02:30pm 20.4 - - - - ENE 11 13 6 7 - - -
20/02:00pm 20.8 - - - - E 13 15 7 8 - - -
20/01:30pm 21.7 - - - - E 11 19 6 10 - - -
20/01:00pm 21.5 - - - - SW 15 17 8 9 - - -
20/12:30pm 20.1 - - - - SW 9 11 5 6 - - -
20/12:00pm 20.6 - - - - WSW 13 20 7 11 - - -
20/11:30am 21.2 - - - - W 15 22 8 12 - - -
20/11:00am 20.3 - - - - WNW 11 19 6 10 - - -
20/10:30am 19.5 - - - - NW 13 17 7 9 - - -
20/10:00am 18.4 - - - - NW 17 24 9 13 - - -
20/09:30am 18.4 - - - - NW 19 28 10 15 - - -
20/09:00am 18.2 - - - - NW 15 24 8 13 - - -
20/08:30am 18.1 - - - - NW 19 26 10 14 - - -
20/08:00am 18.0 - - - - NW 19 26 10 14 - - -
20/07:30am 18.2 - - - - NW 17 26 9 14 - - -
20/07:00am 18.3 - - - - NW 20 28 11 15 - - -
20/06:30am 18.6 - - - - NW 20 28 11 15 - - -
20/06:00am 18.1 - - - - NW 17 22 9 12 - - -
20/05:30am 17.9 - - - - NW 20 28 11 15 - - -
20/05:00am 17.9 - - - - NW 24 32 13 17 - - -
20/04:30am 17.9 - - - - NW 20 26 11 14 - - -
20/04:00am 18.0 - - - - NW 22 35 12 19 - - -
20/03:30am 18.2 - - - - NW 20 28 11 15 - - -
20/03:00am 18.3 - - - - NW 15 26 8 14 - - -
20/02:30am 18.3 - - - - WNW 19 28 10 15 - - -
20/02:00am 18.3 - - - - NW 17 26 9 14 - - -
20/01:30am 18.4 - - - - NW 17 24 9 13 - - -
20/01:00am 18.5 - - - - NW 17 28 9 15 - - -
20/12:30am 18.4 - - - - NNW 15 20 8 11 - - -
20/12:00am 18.6 - - - - NW 17 30 9 16 - - -
 
Date/Time
EST
Tmp

°C
App
Tmp
°C
Dew
Point
°C
Rel
Hum
%
Delta-T

°C
Wind Press
QNH
hPa
Press
MSL
hPa
Rain
since
9 am
mm
Dir
 
Spd
km/h
Gust
km/h
Spd
kts
Gust
kts
19/11:30pm 18.6 - - - - NNW 19 30 10 16 - - -
19/11:00pm 18.3 - - - - NNW 20 32 11 17 - - -
19/10:30pm 18.2 - - - - N 17 22 9 12 - - -
19/10:00pm 18.2 - - - - N 13 19 7 10 - - -
19/09:30pm 17.9 - - - - N 13 20 7 11 - - -
19/09:00pm 17.9 - - - - N 13 20 7 11 - - -
19/08:30pm 18.0 - - - - N 19 22 10 12 - - -
19/08:00pm 17.9 - - - - N 11 13 6 7 - - -
19/07:30pm 18.5 - - - - N 9 13 5 7 - - -
19/07:00pm 18.3 - - - - N 7 9 4 5 - - -

Latest Capital City Observations: Canberra | Sydney | Melbourne | Brisbane | Adelaide | Perth | Hobart | Darwin

Other Formats:

Comma delimited format used in spreadsheet applications
http://www.bom.gov.au/fwo/IDN60901/IDN60901.95766.axf

JavaScript Object Notation format (JSON) in row-major order
http://www.bom.gov.au/fwo/IDN60901/IDN60901.95766.json